Maloy, Iowa
Current Conditions -  °F | °C
As of 4:55 PM on Wednesday 22 Oct 2014 (Local Time) from KCSQ Reporting Station
Clear Clear  
Wind Chill: 64°   Ceiling: Unl
Heat Index: 64°   Visibility: 10mi
Dew Point: 48°   Wind: 15mph
Humidity: 56%   Direction: 150°SSE
Pressure: 30.09"   Gusts: 23mph
Location:  40.6485°N, 94.5286°W
Report Text: KCSQ 222155Z AUTO 15013G20KT 10SM CLR 18/09 A3009 RMK AO2
Loading
Personal Weather Stations






























Interactive Weather Map
Tropical Storm Tracking
New forecast layout! Learn more

10-Day Weather Forecast

Advertisements
Track Severe Weather on mobile